sensor_id;sensor_type;location;lat;lon;timestamp;temperature;humidity
35541;DHT22;21650;48.840;9.162;2023-06-14T00:00:39;17.10;71.50
35541;DHT22;21650;48.840;9.162;2023-06-14T00:03:06;17.10;71.70
35541;DHT22;21650;48.840;9.162;2023-06-14T00:05:35;17.10;72.60
35541;DHT22;21650;48.840;9.162;2023-06-14T00:08:06;17.00;72.60
35541;DHT22;21650;48.840;9.162;2023-06-14T00:10:34;17.00;72.70
35541;DHT22;21650;48.840;9.162;2023-06-14T00:13:04;16.80;72.70
35541;DHT22;21650;48.840;9.162;2023-06-14T00:15:31;16.90;72.70
35541;DHT22;21650;48.840;9.162;2023-06-14T00:17:57;16.90;72.60
35541;DHT22;21650;48.840;9.162;2023-06-14T00:20:26;16.70;74.00
35541;DHT22;21650;48.840;9.162;2023-06-14T00:22:53;16.70;73.40
35541;DHT22;21650;48.840;9.162;2023-06-14T00:25:19;16.70;73.70
35541;DHT22;21650;48.840;9.162;2023-06-14T00:27:45;16.70;73.30
35541;DHT22;21650;48.840;9.162;2023-06-14T00:30:11;16.70;73.70
35541;DHT22;21650;48.840;9.162;2023-06-14T00:32:36;16.60;74.00
35541;DHT22;21650;48.840;9.162;2023-06-14T00:35:02;16.50;71.80
35541;DHT22;21650;48.840;9.162;2023-06-14T00:37:27;16.40;72.40
35541;DHT22;21650;48.840;9.162;2023-06-14T00:39:53;16.50;73.30
35541;DHT22;21650;48.840;9.162;2023-06-14T00:42:26;16.40;73.30
35541;DHT22;21650;48.840;9.162;2023-06-14T00:44:51;16.50;74.70
35541;DHT22;21650;48.840;9.162;2023-06-14T00:47:17;16.50;74.70
35541;DHT22;21650;48.840;9.162;2023-06-14T00:49:48;16.40;73.30
35541;DHT22;21650;48.840;9.162;2023-06-14T00:52:15;16.40;74.50
35541;DHT22;21650;48.840;9.162;2023-06-14T00:54:42;16.40;75.20
35541;DHT22;21650;48.840;9.162;2023-06-14T00:57:08;16.40;75.30
35541;DHT22;21650;48.840;9.162;2023-06-14T00:59:45;16.40;76.30
35541;DHT22;21650;48.840;9.162;2023-06-14T01:02:11;16.40;75.80
35541;DHT22;21650;48.840;9.162;2023-06-14T01:04:38;16.30;75.80
35541;DHT22;21650;48.840;9.162;2023-06-14T01:15:23;16.00;74.70
35541;DHT22;21650;48.840;9.162;2023-06-14T01:17:50;15.90;75.20
35541;DHT22;21650;48.840;9.162;2023-06-14T01:20:22;16.00;74.30
35541;DHT22;21650;48.840;9.162;2023-06-14T01:22:52;15.80;77.30
35541;DHT22;21650;48.840;9.162;2023-06-14T01:25:19;15.80;75.60
35541;DHT22;21650;48.840;9.162;2023-06-14T01:27:48;15.80;75.60
35541;DHT22;21650;48.840;9.162;2023-06-14T01:30:15;15.80;76.20
35541;DHT22;21650;48.840;9.162;2023-06-14T01:32:41;15.60;76.40
35541;DHT22;21650;48.840;9.162;2023-06-14T01:35:07;15.60;76.20
35541;DHT22;21650;48.840;9.162;2023-06-14T01:37:33;15.60;78.00
35541;DHT22;21650;48.840;9.162;2023-06-14T01:39:59;15.60;76.30
35541;DHT22;21650;48.840;9.162;2023-06-14T01:42:25;15.50;76.40
35541;DHT22;21650;48.840;9.162;2023-06-14T01:44:53;15.50;76.00
35541;DHT22;21650;48.840;9.162;2023-06-14T01:47:19;15.40;76.70
35541;DHT22;21650;48.840;9.162;2023-06-14T01:49:46;15.50;79.20
35541;DHT22;21650;48.840;9.162;2023-06-14T01:52:12;15.40;77.10
35541;DHT22;21650;48.840;9.162;2023-06-14T01:54:38;15.40;77.90
35541;DHT22;21650;48.840;9.162;2023-06-14T01:57:08;15.30;77.30
35541;DHT22;21650;48.840;9.162;2023-06-14T01:59:34;15.20;77.30
35541;DHT22;21650;48.840;9.162;2023-06-14T02:02:02;15.20;77.80
35541;DHT22;21650;48.840;9.162;2023-06-14T02:04:27;15.10;78.00
35541;DHT22;21650;48.840;9.162;2023-06-14T02:06:53;15.00;78.10
35541;DHT22;21650;48.840;9.162;2023-06-14T02:09:18;14.90;78.50
35541;DHT22;21650;48.840;9.162;2023-06-14T02:11:44;14.90;78.80
35541;DHT22;21650;48.840;9.162;2023-06-14T02:14:09;14.90;79.10
35541;DHT22;21650;48.840;9.162;2023-06-14T02:16:37;14.80;79.90
35541;DHT22;21650;48.840;9.162;2023-06-14T02:19:04;14.80;78.90
35541;DHT22;21650;48.840;9.162;2023-06-14T02:21:30;14.90;79.30
35541;DHT22;21650;48.840;9.162;2023-06-14T02:23:55;15.00;79.80
35541;DHT22;21650;48.840;9.162;2023-06-14T02:26:21;15.10;80.40
35541;DHT22;21650;48.840;9.162;2023-06-14T02:28:48;15.10;79.60
35541;DHT22;21650;48.840;9.162;2023-06-14T02:31:14;15.00;79.50
35541;DHT22;21650;48.840;9.162;2023-06-14T02:33:40;14.90;79.30
35541;DHT22;21650;48.840;9.162;2023-06-14T02:36:06;14.80;79.60
35541;DHT22;21650;48.840;9.162;2023-06-14T02:38:31;14.70;80.40
35541;DHT22;21650;48.840;9.162;2023-06-14T02:40:57;14.70;80.20
35541;DHT22;21650;48.840;9.162;2023-06-14T02:43:24;14.70;80.40
35541;DHT22;21650;48.840;9.162;2023-06-14T02:45:50;14.60;80.90
35541;DHT22;21650;48.840;9.162;2023-06-14T02:48:15;14.70;80.80
35541;DHT22;21650;48.840;9.162;2023-06-14T02:50:41;14.70;80.30
35541;DHT22;21650;48.840;9.162;2023-06-14T02:53:07;14.60;81.50
35541;DHT22;21650;48.840;9.162;2023-06-14T02:55:33;14.80;82.30
35541;DHT22;21650;48.840;9.162;2023-06-14T02:57:58;14.70;81.60
35541;DHT22;21650;48.840;9.162;2023-06-14T03:00:24;14.70;81.20
35541;DHT22;21650;48.840;9.162;2023-06-14T03:02:49;14.60;81.10
35541;DHT22;21650;48.840;9.162;2023-06-14T03:05:16;14.50;81.80
35541;DHT22;21650;48.840;9.162;2023-06-14T03:07:46;14.70;82.20
35541;DHT22;21650;48.840;9.162;2023-06-14T03:10:13;14.60;82.10
35541;DHT22;21650;48.840;9.162;2023-06-14T03:12:39;14.50;81.70
35541;DHT22;21650;48.840;9.162;2023-06-14T03:15:05;14.50;81.90
35541;DHT22;21650;48.840;9.162;2023-06-14T03:17:30;14.40;82.20
35541;DHT22;21650;48.840;9.162;2023-06-14T03:19:59;14.40;82.20
35541;DHT22;21650;48.840;9.162;2023-06-14T03:22:25;14.30;82.20
35541;DHT22;21650;48.840;9.162;2023-06-14T03:24:51;14.20;82.70
35541;DHT22;21650;48.840;9.162;2023-06-14T03:27:17;14.20;83.40
35541;DHT22;21650;48.840;9.162;2023-06-14T03:29:44;14.10;83.20
35541;DHT22;21650;48.840;9.162;2023-06-14T03:32:09;14.20;83.30
35541;DHT22;21650;48.840;9.162;2023-06-14T03:34:35;14.10;83.40
35541;DHT22;21650;48.840;9.162;2023-06-14T03:37:01;14.30;84.00
35541;DHT22;21650;48.840;9.162;2023-06-14T03:39:26;14.40;83.60
35541;DHT22;21650;48.840;9.162;2023-06-14T03:41:52;14.30;83.70
35541;DHT22;21650;48.840;9.162;2023-06-14T03:44:18;14.30;82.80
35541;DHT22;21650;48.840;9.162;2023-06-14T03:46:44;14.30;84.10
35541;DHT22;21650;48.840;9.162;2023-06-14T03:49:11;14.30;84.10
35541;DHT22;21650;48.840;9.162;2023-06-14T03:51:36;14.30;83.30
35541;DHT22;21650;48.840;9.162;2023-06-14T03:54:02;14.10;84.00
35541;DHT22;21650;48.840;9.162;2023-06-14T03:56:27;14.00;84.70
35541;DHT22;21650;48.840;9.162;2023-06-14T03:58:53;13.90;84.80
35541;DHT22;21650;48.840;9.162;2023-06-14T04:01:18;14.00;85.00
35541;DHT22;21650;48.840;9.162;2023-06-14T04:03:44;13.90;85.40
35541;DHT22;21650;48.840;9.162;2023-06-14T04:06:09;13.80;85.90
35541;DHT22;21650;48.840;9.162;2023-06-14T04:08:35;13.90;86.20
35541;DHT22;21650;48.840;9.162;2023-06-14T04:11:01;14.10;85.60
35541;DHT22;21650;48.840;9.162;2023-06-14T04:13:27;14.30;87.10
35541;DHT22;21650;48.840;9.162;2023-06-14T04:15:52;14.50;87.20
35541;DHT22;21650;48.840;9.162;2023-06-14T04:18:18;14.40;85.20
35541;DHT22;21650;48.840;9.162;2023-06-14T04:20:45;14.40;85.30
35541;DHT22;21650;48.840;9.162;2023-06-14T04:23:12;14.40;85.00
35541;DHT22;21650;48.840;9.162;2023-06-14T04:25:38;14.30;86.10
35541;DHT22;21650;48.840;9.162;2023-06-14T04:28:03;14.30;86.00
35541;DHT22;21650;48.840;9.162;2023-06-14T04:30:29;14.20;86.40
35541;DHT22;21650;48.840;9.162;2023-06-14T04:32:56;14.20;86.60
35541;DHT22;21650;48.840;9.162;2023-06-14T04:35:22;14.20;87.20
35541;DHT22;21650;48.840;9.162;2023-06-14T04:37:49;14.30;86.60
35541;DHT22;21650;48.840;9.162;2023-06-14T04:40:15;14.60;86.70
35541;DHT22;21650;48.840;9.162;2023-06-14T04:42:40;14.70;86.00
35541;DHT22;21650;48.840;9.162;2023-06-14T04:45:10;14.70;85.80
35541;DHT22;21650;48.840;9.162;2023-06-14T04:47:36;14.50;86.30
35541;DHT22;21650;48.840;9.162;2023-06-14T04:50:03;14.30;87.40
35541;DHT22;21650;48.840;9.162;2023-06-14T04:52:29;14.50;87.10
35541;DHT22;21650;48.840;9.162;2023-06-14T04:54:55;14.80;86.80
35541;DHT22;21650;48.840;9.162;2023-06-14T04:57:21;15.10;87.90
35541;DHT22;21650;48.840;9.162;2023-06-14T04:59:48;15.40;87.80
35541;DHT22;21650;48.840;9.162;2023-06-14T05:02:13;15.50;86.20
35541;DHT22;21650;48.840;9.162;2023-06-14T05:04:39;15.70;84.50
35541;DHT22;21650;48.840;9.162;2023-06-14T05:07:08;15.80;84.30
35541;DHT22;21650;48.840;9.162;2023-06-14T05:09:37;16.00;85.00
35541;DHT22;21650;48.840;9.162;2023-06-14T05:12:03;16.10;83.30
35541;DHT22;21650;48.840;9.162;2023-06-14T05:14:29;16.30;81.80
35541;DHT22;21650;48.840;9.162;2023-06-14T05:16:54;16.40;82.00
35541;DHT22;21650;48.840;9.162;2023-06-14T05:19:20;16.70;81.80
35541;DHT22;21650;48.840;9.162;2023-06-14T05:21:47;16.70;80.90
35541;DHT22;21650;48.840;9.162;2023-06-14T05:24:13;16.50;80.20
35541;DHT22;21650;48.840;9.162;2023-06-14T05:26:38;16.60;80.90
35541;DHT22;21650;48.840;9.162;2023-06-14T05:29:04;16.50;80.70
35541;DHT22;21650;48.840;9.162;2023-06-14T05:31:30;16.70;80.10
35541;DHT22;21650;48.840;9.162;2023-06-14T05:33:55;16.70;80.40
35541;DHT22;21650;48.840;9.162;2023-06-14T05:36:21;16.50;79.80
35541;DHT22;21650;48.840;9.162;2023-06-14T05:38:46;16.70;80.00
35541;DHT22;21650;48.840;9.162;2023-06-14T05:41:12;16.90;79.80
35541;DHT22;21650;48.840;9.162;2023-06-14T05:43:38;17.00;79.30
35541;DHT22;21650;48.840;9.162;2023-06-14T05:46:03;17.10;78.30
35541;DHT22;21650;48.840;9.162;2023-06-14T05:48:30;17.10;78.20
35541;DHT22;21650;48.840;9.162;2023-06-14T05:50:56;17.20;78.60
35541;DHT22;21650;48.840;9.162;2023-06-14T05:53:22;17.00;78.90
35541;DHT22;21650;48.840;9.162;2023-06-14T05:55:49;17.00;79.00
35541;DHT22;21650;48.840;9.162;2023-06-14T05:58:15;17.30;78.70
35541;DHT22;21650;48.840;9.162;2023-06-14T06:00:41;17.20;79.00
35541;DHT22;21650;48.840;9.162;2023-06-14T06:03:06;17.40;78.00
35541;DHT22;21650;48.840;9.162;2023-06-14T06:05:36;17.50;75.10
35541;DHT22;21650;48.840;9.162;2023-06-14T06:08:02;17.20;75.40
35541;DHT22;21650;48.840;9.162;2023-06-14T06:10:27;17.20;78.30
35541;DHT22;21650;48.840;9.162;2023-06-14T06:12:53;17.20;78.30
35541;DHT22;21650;48.840;9.162;2023-06-14T06:15:20;17.20;78.60
35541;DHT22;21650;48.840;9.162;2023-06-14T06:17:45;17.00;78.70
35541;DHT22;21650;48.840;9.162;2023-06-14T06:20:12;17.00;79.80
35541;DHT22;21650;48.840;9.162;2023-06-14T06:22:38;17.30;78.30
35541;DHT22;21650;48.840;9.162;2023-06-14T06:25:04;17.60;78.50
35541;DHT22;21650;48.840;9.162;2023-06-14T06:27:30;17.50;77.20
35541;DHT22;21650;48.840;9.162;2023-06-14T06:29:55;17.50;77.20
35541;DHT22;21650;48.840;9.162;2023-06-14T06:32:21;17.60;77.00
35541;DHT22;21650;48.840;9.162;2023-06-14T06:34:47;17.80;76.70
35541;DHT22;21650;48.840;9.162;2023-06-14T06:37:13;17.80;76.90
35541;DHT22;21650;48.840;9.162;2023-06-14T06:39:39;17.90;76.50
35541;DHT22;21650;48.840;9.162;2023-06-14T06:42:05;18.10;75.20
35541;DHT22;21650;48.840;9.162;2023-06-14T06:44:32;18.40;70.50
35541;DHT22;21650;48.840;9.162;2023-06-14T06:46:57;18.60;71.30
35541;DHT22;21650;48.840;9.162;2023-06-14T06:49:23;18.70;72.00
35541;DHT22;21650;48.840;9.162;2023-06-14T06:52:05;18.70;70.80
35541;DHT22;21650;48.840;9.162;2023-06-14T06:54:32;18.90;72.50
35541;DHT22;21650;48.840;9.162;2023-06-14T06:56:58;18.80;69.80
35541;DHT22;21650;48.840;9.162;2023-06-14T06:59:24;18.70;71.30
35541;DHT22;21650;48.840;9.162;2023-06-14T07:01:50;18.90;71.20
35541;DHT22;21650;48.840;9.162;2023-06-14T07:04:16;19.10;71.10
35541;DHT22;21650;48.840;9.162;2023-06-14T07:06:42;19.10;70.70
35541;DHT22;21650;48.840;9.162;2023-06-14T07:09:08;18.90;70.50
35541;DHT22;21650;48.840;9.162;2023-06-14T07:11:38;19.10;71.20
35541;DHT22;21650;48.840;9.162;2023-06-14T07:14:04;18.70;69.90
35541;DHT22;21650;48.840;9.162;2023-06-14T07:16:30;18.60;70.30
35541;DHT22;21650;48.840;9.162;2023-06-14T07:18:55;18.80;71.50
35541;DHT22;21650;48.840;9.162;2023-06-14T07:21:21;19.00;71.70
35541;DHT22;21650;48.840;9.162;2023-06-14T07:23:47;19.00;70.30
35541;DHT22;21650;48.840;9.162;2023-06-14T07:26:12;19.30;70.90
35541;DHT22;21650;48.840;9.162;2023-06-14T07:28:38;19.50;70.70
35541;DHT22;21650;48.840;9.162;2023-06-14T07:31:04;19.50;70.60
35541;DHT22;21650;48.840;9.162;2023-06-14T07:33:29;19.40;71.10
35541;DHT22;21650;48.840;9.162;2023-06-14T07:35:55;19.60;73.40
35541;DHT22;21650;48.840;9.162;2023-06-14T07:38:21;19.50;69.30
35541;DHT22;21650;48.840;9.162;2023-06-14T07:40:46;19.20;68.30
35541;DHT22;21650;48.840;9.162;2023-06-14T07:43:12;19.20;70.80
35541;DHT22;21650;48.840;9.162;2023-06-14T07:45:38;19.50;72.10
35541;DHT22;21650;48.840;9.162;2023-06-14T07:48:04;19.60;72.40
35541;DHT22;21650;48.840;9.162;2023-06-14T07:50:29;19.70;70.30
35541;DHT22;21650;48.840;9.162;2023-06-14T07:52:56;19.70;71.50
35541;DHT22;21650;48.840;9.162;2023-06-14T07:55:21;19.80;71.70
35541;DHT22;21650;48.840;9.162;2023-06-14T07:57:47;19.70;71.60
35541;DHT22;21650;48.840;9.162;2023-06-14T08:00:13;19.80;71.00
35541;DHT22;21650;48.840;9.162;2023-06-14T08:02:44;19.80;72.10
35541;DHT22;21650;48.840;9.162;2023-06-14T08:05:12;20.00;71.90
35541;DHT22;21650;48.840;9.162;2023-06-14T08:07:39;20.00;70.40
35541;DHT22;21650;48.840;9.162;2023-06-14T08:10:06;20.20;69.70
35541;DHT22;21650;48.840;9.162;2023-06-14T08:12:32;20.50;69.10
35541;DHT22;21650;48.840;9.162;2023-06-14T08:14:58;20.40;68.40
35541;DHT22;21650;48.840;9.162;2023-06-14T08:17:24;20.70;70.90
35541;DHT22;21650;48.840;9.162;2023-06-14T08:19:50;21.20;69.40
35541;DHT22;21650;48.840;9.162;2023-06-14T08:22:16;21.50;67.70
35541;DHT22;21650;48.840;9.162;2023-06-14T08:24:43;21.90;67.10
35541;DHT22;21650;48.840;9.162;2023-06-14T08:27:09;21.60;66.00
35541;DHT22;21650;48.840;9.162;2023-06-14T08:29:35;21.80;65.30
35541;DHT22;21650;48.840;9.162;2023-06-14T08:32:01;22.00;63.60
35541;DHT22;21650;48.840;9.162;2023-06-14T08:34:27;22.60;64.90
35541;DHT22;21650;48.840;9.162;2023-06-14T08:36:53;22.50;62.80
35541;DHT22;21650;48.840;9.162;2023-06-14T08:39:18;22.70;64.30
35541;DHT22;21650;48.840;9.162;2023-06-14T08:41:46;22.90;63.70
35541;DHT22;21650;48.840;9.162;2023-06-14T08:44:16;22.60;63.60
35541;DHT22;21650;48.840;9.162;2023-06-14T08:46:43;22.70;65.40
35541;DHT22;21650;48.840;9.162;2023-06-14T08:49:11;23.70;64.30
35541;DHT22;21650;48.840;9.162;2023-06-14T08:51:38;23.50;62.60
35541;DHT22;21650;48.840;9.162;2023-06-14T08:54:06;23.50;63.50
35541;DHT22;21650;48.840;9.162;2023-06-14T08:56:32;23.50;61.10
35541;DHT22;21650;48.840;9.162;2023-06-14T08:58:59;23.80;62.00
35541;DHT22;21650;48.840;9.162;2023-06-14T09:01:32;24.10;61.50
35541;DHT22;21650;48.840;9.162;2023-06-14T09:03:59;24.30;63.30
35541;DHT22;21650;48.840;9.162;2023-06-14T09:06:25;24.10;59.30
35541;DHT22;21650;48.840;9.162;2023-06-14T09:08:54;22.80;61.10
35541;DHT22;21650;48.840;9.162;2023-06-14T09:11:21;23.30;63.20
35541;DHT22;21650;48.840;9.162;2023-06-14T09:13:48;23.30;61.70
35541;DHT22;21650;48.840;9.162;2023-06-14T09:16:14;23.90;60.90
35541;DHT22;21650;48.840;9.162;2023-06-14T09:18:44;24.30;63.00
35541;DHT22;21650;48.840;9.162;2023-06-14T09:21:11;24.80;61.50
35541;DHT22;21650;48.840;9.162;2023-06-14T09:23:43;24.90;59.90
35541;DHT22;21650;48.840;9.162;2023-06-14T09:26:14;24.80;63.50
35541;DHT22;21650;48.840;9.162;2023-06-14T09:28:48;25.20;58.80
35541;DHT22;21650;48.840;9.162;2023-06-14T09:31:15;24.70;59.80
35541;DHT22;21650;48.840;9.162;2023-06-14T09:33:46;24.50;60.30
35541;DHT22;21650;48.840;9.162;2023-06-14T09:36:24;24.70;60.80
35541;DHT22;21650;48.840;9.162;2023-06-14T09:39:03;25.10;61.60
35541;DHT22;21650;48.840;9.162;2023-06-14T09:41:40;24.80;60.70
35541;DHT22;21650;48.840;9.162;2023-06-14T09:44:08;24.90;57.40
35541;DHT22;21650;48.840;9.162;2023-06-14T09:46:35;25.40;59.80
35541;DHT22;21650;48.840;9.162;2023-06-14T09:49:02;25.30;59.30
35541;DHT22;21650;48.840;9.162;2023-06-14T09:51:28;25.30;59.60
35541;DHT22;21650;48.840;9.162;2023-06-14T09:54:03;25.50;58.20
35541;DHT22;21650;48.840;9.162;2023-06-14T09:56:34;25.40;56.30
35541;DHT22;21650;48.840;9.162;2023-06-14T09:59:04;25.40;57.20
35541;DHT22;21650;48.840;9.162;2023-06-14T10:01:31;26.00;58.80
35541;DHT22;21650;48.840;9.162;2023-06-14T10:04:07;25.50;56.30
35541;DHT22;21650;48.840;9.162;2023-06-14T10:06:36;25.40;57.70
35541;DHT22;21650;48.840;9.162;2023-06-14T10:09:04;24.60;54.70
35541;DHT22;21650;48.840;9.162;2023-06-14T10:11:31;24.00;57.70
35541;DHT22;21650;48.840;9.162;2023-06-14T10:13:58;25.00;57.60
35541;DHT22;21650;48.840;9.162;2023-06-14T10:16:41;25.60;58.20
35541;DHT22;21650;48.840;9.162;2023-06-14T10:19:21;25.60;57.90
35541;DHT22;21650;48.840;9.162;2023-06-14T10:22:06;25.90;55.20
35541;DHT22;21650;48.840;9.162;2023-06-14T10:24:38;26.10;55.30
35541;DHT22;21650;48.840;9.162;2023-06-14T10:27:06;25.60;52.70
35541;DHT22;21650;48.840;9.162;2023-06-14T10:32:27;24.30;54.40
35541;DHT22;21650;48.840;9.162;2023-06-14T10:34:58;24.80;55.90
35541;DHT22;21650;48.840;9.162;2023-06-14T10:37:25;24.90;53.90
35541;DHT22;21650;48.840;9.162;2023-06-14T10:39:51;25.20;56.40
35541;DHT22;21650;48.840;9.162;2023-06-14T10:42:17;24.40;53.90
35541;DHT22;21650;48.840;9.162;2023-06-14T10:44:55;23.70;56.00
35541;DHT22;21650;48.840;9.162;2023-06-14T10:47:22;23.40;55.10
35541;DHT22;21650;48.840;9.162;2023-06-14T10:49:51;23.40;56.70
35541;DHT22;21650;48.840;9.162;2023-06-14T10:52:24;23.40;56.50
35541;DHT22;21650;48.840;9.162;2023-06-14T10:55:07;23.80;55.20
35541;DHT22;21650;48.840;9.162;2023-06-14T10:57:42;24.90;56.60
35541;DHT22;21650;48.840;9.162;2023-06-14T11:00:09;25.70;55.10
35541;DHT22;21650;48.840;9.162;2023-06-14T11:05:57;25.80;50.40
35541;DHT22;21650;48.840;9.162;2023-06-14T11:08:45;26.00;51.80
35541;DHT22;21650;48.840;9.162;2023-06-14T11:11:14;25.20;50.40
35541;DHT22;21650;48.840;9.162;2023-06-14T11:13:42;24.20;51.60
35541;DHT22;21650;48.840;9.162;2023-06-14T11:16:16;24.30;53.40
35541;DHT22;21650;48.840;9.162;2023-06-14T11:18:42;24.20;52.80
35541;DHT22;21650;48.840;9.162;2023-06-14T11:21:09;24.20;52.00
35541;DHT22;21650;48.840;9.162;2023-06-14T11:23:35;24.00;52.20
35541;DHT22;21650;48.840;9.162;2023-06-14T11:26:01;23.40;51.40
35541;DHT22;21650;48.840;9.162;2023-06-14T11:28:40;23.80;53.10
35541;DHT22;21650;48.840;9.162;2023-06-14T11:31:07;24.60;52.70
35541;DHT22;21650;48.840;9.162;2023-06-14T11:33:33;25.00;50.60
35541;DHT22;21650;48.840;9.162;2023-06-14T11:36:02;24.70;50.60
35541;DHT22;21650;48.840;9.162;2023-06-14T11:38:27;24.90;52.30
35541;DHT22;21650;48.840;9.162;2023-06-14T11:40:53;25.40;52.30
35541;DHT22;21650;48.840;9.162;2023-06-14T11:43:19;25.80;52.40
35541;DHT22;21650;48.840;9.162;2023-06-14T11:45:48;26.00;50.80
35541;DHT22;21650;48.840;9.162;2023-06-14T11:48:14;26.50;50.50
35541;DHT22;21650;48.840;9.162;2023-06-14T11:50:40;26.40;49.70
35541;DHT22;21650;48.840;9.162;2023-06-14T11:53:06;26.30;50.90
35541;DHT22;21650;48.840;9.162;2023-06-14T11:55:39;26.30;49.00
35541;DHT22;21650;48.840;9.162;2023-06-14T11:58:05;26.10;51.30
35541;DHT22;21650;48.840;9.162;2023-06-14T12:00:31;26.00;49.60
35541;DHT22;21650;48.840;9.162;2023-06-14T12:02:57;25.70;49.70
35541;DHT22;21650;48.840;9.162;2023-06-14T12:05:24;25.90;50.40
35541;DHT22;21650;48.840;9.162;2023-06-14T12:07:50;25.60;50.20
35541;DHT22;21650;48.840;9.162;2023-06-14T12:10:18;25.40;50.90
35541;DHT22;21650;48.840;9.162;2023-06-14T12:12:44;24.80;51.50
35541;DHT22;21650;48.840;9.162;2023-06-14T12:15:10;25.20;53.30
35541;DHT22;21650;48.840;9.162;2023-06-14T12:17:39;25.50;51.90
35541;DHT22;21650;48.840;9.162;2023-06-14T12:20:12;25.80;50.70
35541;DHT22;21650;48.840;9.162;2023-06-14T12:22:46;26.20;49.90
35541;DHT22;21650;48.840;9.162;2023-06-14T12:25:23;26.60;50.40
35541;DHT22;21650;48.840;9.162;2023-06-14T12:27:53;26.70;48.60
35541;DHT22;21650;48.840;9.162;2023-06-14T12:30:18;26.50;50.00
35541;DHT22;21650;48.840;9.162;2023-06-14T12:32:44;26.20;51.40
35541;DHT22;21650;48.840;9.162;2023-06-14T12:35:10;26.30;50.60
35541;DHT22;21650;48.840;9.162;2023-06-14T12:37:36;26.50;49.40
35541;DHT22;21650;48.840;9.162;2023-06-14T12:40:02;26.40;50.60
35541;DHT22;21650;48.840;9.162;2023-06-14T12:42:31;26.60;49.40
35541;DHT22;21650;48.840;9.162;2023-06-14T12:44:57;26.90;48.30
35541;DHT22;21650;48.840;9.162;2023-06-14T12:47:22;27.30;50.00
35541;DHT22;21650;48.840;9.162;2023-06-14T12:49:48;26.70;48.90
35541;DHT22;21650;48.840;9.162;2023-06-14T12:52:13;26.00;49.30
35541;DHT22;21650;48.840;9.162;2023-06-14T12:54:39;26.00;48.90
35541;DHT22;21650;48.840;9.162;2023-06-14T12:57:06;26.00;50.60
35541;DHT22;21650;48.840;9.162;2023-06-14T12:59:31;25.50;50.60
35541;DHT22;21650;48.840;9.162;2023-06-14T13:02:09;25.10;51.00
35541;DHT22;21650;48.840;9.162;2023-06-14T13:04:35;25.70;51.70
35541;DHT22;21650;48.840;9.162;2023-06-14T13:07:00;26.00;50.90
35541;DHT22;21650;48.840;9.162;2023-06-14T13:09:26;26.20;49.80
35541;DHT22;21650;48.840;9.162;2023-06-14T13:11:52;26.60;50.20
35541;DHT22;21650;48.840;9.162;2023-06-14T13:14:17;26.70;49.40
35541;DHT22;21650;48.840;9.162;2023-06-14T13:16:44;26.80;49.80
35541;DHT22;21650;48.840;9.162;2023-06-14T13:19:09;26.50;48.60
35541;DHT22;21650;48.840;9.162;2023-06-14T13:21:35;27.10;48.80
35541;DHT22;21650;48.840;9.162;2023-06-14T13:24:01;27.30;49.00
35541;DHT22;21650;48.840;9.162;2023-06-14T13:26:26;27.40;49.00
35541;DHT22;21650;48.840;9.162;2023-06-14T13:28:52;27.00;47.90
35541;DHT22;21650;48.840;9.162;2023-06-14T13:31:17;27.20;48.70
35541;DHT22;21650;48.840;9.162;2023-06-14T13:33:43;27.10;47.40
35541;DHT22;21650;48.840;9.162;2023-06-14T13:36:09;26.70;48.00
35541;DHT22;21650;48.840;9.162;2023-06-14T13:38:35;27.00;49.10
35541;DHT22;21650;48.840;9.162;2023-06-14T13:41:01;26.50;48.10
35541;DHT22;21650;48.840;9.162;2023-06-14T13:43:26;26.40;49.10
35541;DHT22;21650;48.840;9.162;2023-06-14T13:45:52;26.10;49.30
35541;DHT22;21650;48.840;9.162;2023-06-14T13:48:17;26.40;49.10
35541;DHT22;21650;48.840;9.162;2023-06-14T13:50:43;26.10;50.20
35541;DHT22;21650;48.840;9.162;2023-06-14T13:53:09;25.70;49.60
35541;DHT22;21650;48.840;9.162;2023-06-14T13:55:35;25.80;51.20
35541;DHT22;21650;48.840;9.162;2023-06-14T13:58:01;26.10;50.80
35541;DHT22;21650;48.840;9.162;2023-06-14T14:00:26;26.10;51.10
35541;DHT22;21650;48.840;9.162;2023-06-14T14:02:52;25.60;51.80
35541;DHT22;21650;48.840;9.162;2023-06-14T14:05:18;25.10;50.80
35541;DHT22;21650;48.840;9.162;2023-06-14T14:07:43;25.30;52.50
35541;DHT22;21650;48.840;9.162;2023-06-14T14:10:10;26.10;51.90
35541;DHT22;21650;48.840;9.162;2023-06-14T14:12:38;26.40;51.80
35541;DHT22;21650;48.840;9.162;2023-06-14T14:15:05;26.80;50.80
35541;DHT22;21650;48.840;9.162;2023-06-14T14:17:33;26.90;49.90
35541;DHT22;21650;48.840;9.162;2023-06-14T14:19:58;26.40;48.80
35541;DHT22;21650;48.840;9.162;2023-06-14T14:22:24;25.70;51.60
35541;DHT22;21650;48.840;9.162;2023-06-14T14:24:49;25.40;50.40
35541;DHT22;21650;48.840;9.162;2023-06-14T14:27:15;25.50;51.90
35541;DHT22;21650;48.840;9.162;2023-06-14T14:29:41;25.40;50.90
35541;DHT22;21650;48.840;9.162;2023-06-14T14:32:06;25.90;51.80
35541;DHT22;21650;48.840;9.162;2023-06-14T14:34:32;26.70;49.70
35541;DHT22;21650;48.840;9.162;2023-06-14T14:36:58;26.60;48.80
35541;DHT22;21650;48.840;9.162;2023-06-14T14:39:23;26.90;49.20
35541;DHT22;21650;48.840;9.162;2023-06-14T14:41:50;26.50;49.70
35541;DHT22;21650;48.840;9.162;2023-06-14T14:44:15;27.40;50.60
35541;DHT22;21650;48.840;9.162;2023-06-14T14:46:41;27.30;48.30
35541;DHT22;21650;48.840;9.162;2023-06-14T14:49:07;26.90;48.70
35541;DHT22;21650;48.840;9.162;2023-06-14T14:51:32;27.00;49.80
35541;DHT22;21650;48.840;9.162;2023-06-14T14:53:58;26.90;50.00
35541;DHT22;21650;48.840;9.162;2023-06-14T14:56:23;26.70;50.30
35541;DHT22;21650;48.840;9.162;2023-06-14T14:58:49;27.10;50.10
35541;DHT22;21650;48.840;9.162;2023-06-14T15:01:15;26.60;50.10
35541;DHT22;21650;48.840;9.162;2023-06-14T15:03:41;26.00;51.50
35541;DHT22;21650;48.840;9.162;2023-06-14T15:06:06;25.70;51.20
35541;DHT22;21650;48.840;9.162;2023-06-14T15:08:32;26.00;51.90
35541;DHT22;21650;48.840;9.162;2023-06-14T15:10:57;26.60;49.80
35541;DHT22;21650;48.840;9.162;2023-06-14T15:13:23;27.00;48.80
35541;DHT22;21650;48.840;9.162;2023-06-14T15:15:49;27.00;47.90
35541;DHT22;21650;48.840;9.162;2023-06-14T15:18:15;27.40;49.40
35541;DHT22;21650;48.840;9.162;2023-06-14T15:20:42;27.30;49.70
35541;DHT22;21650;48.840;9.162;2023-06-14T15:23:08;26.50;48.50
35541;DHT22;21650;48.840;9.162;2023-06-14T15:25:33;26.40;49.30
35541;DHT22;21650;48.840;9.162;2023-06-14T15:27:59;26.90;50.00
35541;DHT22;21650;48.840;9.162;2023-06-14T15:30:24;26.70;49.30
35541;DHT22;21650;48.840;9.162;2023-06-14T15:32:50;26.60;50.40
35541;DHT22;21650;48.840;9.162;2023-06-14T15:35:17;26.30;49.10
35541;DHT22;21650;48.840;9.162;2023-06-14T15:37:43;26.10;50.10
35541;DHT22;21650;48.840;9.162;2023-06-14T15:40:09;25.60;50.50
35541;DHT22;21650;48.840;9.162;2023-06-14T15:42:35;25.40;50.20